createdAt,value
2023-02-19T00:01:09.366Z,31.60
2023-02-19T00:04:15.806Z,32.22
2023-02-19T00:07:18.757Z,31.88
2023-02-19T00:10:21.589Z,31.67
2023-02-19T00:13:24.474Z,30.80
2023-02-19T00:16:29.166Z,32.22
2023-02-19T00:19:33.531Z,31.75
2023-02-19T00:22:36.475Z,30.77
2023-02-19T00:25:39.495Z,30.05
2023-02-19T00:28:42.415Z,29.20
2023-02-19T00:31:46.481Z,29.38
2023-02-19T00:34:50.928Z,31.55
2023-02-19T00:37:53.886Z,29.38
2023-02-19T00:40:56.787Z,27.65
2023-02-19T00:44:01.806Z,30.15
2023-02-19T00:47:04.723Z,32.35
2023-02-19T00:50:09.463Z,30.63
2023-02-19T00:53:12.489Z,31.13
2023-02-19T00:56:15.902Z,29.92
2023-02-19T00:59:18.902Z,33.78
2023-02-19T01:02:22.199Z,33.60
2023-02-19T01:05:27.589Z,32.78
2023-02-19T01:08:32.114Z,32.40
2023-02-19T01:11:37.210Z,27.15
2023-02-19T01:14:40.289Z,25.40
2023-02-19T01:17:43.357Z,28.80
2023-02-19T01:20:48.137Z,28.58
2023-02-19T01:23:51.727Z,28.05
2023-02-19T01:26:54.561Z,29.63
2023-02-19T01:29:57.720Z,27.58
2023-02-19T01:33:00.669Z,27.13
2023-02-19T01:36:07.265Z,26.33
2023-02-19T01:39:12.035Z,27.55
2023-02-19T01:42:16.834Z,26.95
2023-02-19T01:45:26.939Z,30.85
2023-02-19T01:48:33.947Z,27.90
2023-02-19T01:51:42.651Z,27.05
2023-02-19T01:54:48.115Z,28.30
2023-02-19T01:57:55.879Z,26.85
2023-02-19T02:00:59.376Z,26.45
2023-02-19T02:04:02.464Z,28.42
2023-02-19T02:07:28.218Z,25.20
2023-02-19T02:10:30.189Z,24.15
2023-02-19T02:13:34.830Z,27.60
2023-02-19T02:16:49.327Z,25.90
2023-02-19T02:20:07.950Z,28.70
2023-02-19T02:23:21.381Z,23.88
2023-02-19T02:26:36.759Z,27.23
2023-02-19T02:30:07.019Z,23.60
2023-02-19T02:33:20.656Z,25.27
2023-02-19T02:36:28.463Z,24.48
2023-02-19T02:39:32.740Z,25.40
2023-02-19T02:42:40.129Z,23.77
2023-02-19T02:45:49.112Z,23.23
2023-02-19T02:49:01.839Z,23.63
2023-02-19T02:52:25.207Z,25.67
2023-02-19T02:55:31.598Z,23.75
2023-02-19T02:58:35.703Z,23.10
2023-02-19T03:02:03.317Z,22.95
2023-02-19T03:05:27.137Z,24.27
2023-02-19T03:08:32.745Z,22.83
2023-02-19T03:11:57.202Z,22.25
2023-02-19T03:15:23.080Z,22.10
2023-02-19T03:18:51.924Z,21.92
2023-02-19T03:22:00.346Z,22.15
2023-02-19T03:25:26.024Z,21.65
2023-02-19T03:28:47.446Z,21.58
2023-02-19T03:31:53.416Z,21.83
2023-02-19T03:35:03.116Z,21.73
2023-02-19T03:38:12.401Z,21.33
2023-02-19T03:41:24.366Z,21.08
2023-02-19T03:44:38.854Z,21.70
2023-02-19T03:47:49.967Z,21.80
2023-02-19T03:51:10.515Z,21.63
2023-02-19T03:54:22.114Z,19.35
2023-02-19T03:57:32.741Z,21.42
2023-02-19T04:00:40.803Z,21.05
2023-02-19T04:03:50.026Z,21.02
2023-02-19T04:06:57.336Z,19.25
2023-02-19T04:10:04.834Z,21.15
2023-02-19T04:13:12.732Z,20.88
2023-02-19T04:16:20.406Z,21.17
2023-02-19T04:19:27.397Z,19.50
2023-02-19T04:22:32.382Z,20.50
2023-02-19T04:25:37.429Z,19.98
2023-02-19T04:28:40.720Z,19.73
2023-02-19T04:31:43.585Z,19.92
2023-02-19T04:34:46.619Z,19.65
2023-02-19T04:37:50.795Z,17.55
2023-02-19T04:40:53.751Z,19.55
2023-02-19T04:43:56.592Z,18.73
2023-02-19T04:46:59.447Z,17.58
2023-02-19T04:50:02.393Z,18.92
2023-02-19T04:53:06.730Z,17.42
2023-02-19T04:56:10.839Z,18.30
2023-02-19T04:59:13.920Z,18.42
2023-02-19T05:02:16.857Z,17.73
2023-02-19T05:05:19.692Z,17.92
2023-02-19T05:08:23.922Z,20.52
2023-02-19T05:11:26.988Z,17.65
2023-02-19T05:14:29.842Z,16.83
2023-02-19T05:17:34.186Z,18.05
2023-02-19T05:20:37.748Z,18.35
2023-02-19T05:23:42.453Z,17.33
2023-02-19T05:26:45.619Z,16.05
2023-02-19T05:29:48.599Z,16.70
2023-02-19T05:32:51.427Z,16.98
2023-02-19T05:35:56.626Z,17.65
2023-02-19T05:39:00.877Z,16.30
2023-02-19T05:42:03.779Z,16.58
2023-02-19T05:45:07.550Z,17.05
2023-02-19T05:48:12.878Z,15.82
2023-02-19T05:51:18.206Z,16.48
2023-02-19T05:54:22.461Z,16.88
2023-02-19T05:57:25.394Z,16.90
2023-02-19T06:00:28.468Z,15.88
2023-02-19T06:03:31.295Z,15.32
2023-02-19T06:06:34.168Z,16.33
2023-02-19T06:09:38.457Z,16.15
2023-02-19T06:12:41.235Z,15.60
2023-02-19T06:15:44.075Z,13.68
2023-02-19T06:18:47.285Z,15.57
2023-02-19T06:21:51.364Z,15.25
2023-02-19T06:24:55.834Z,16.08
2023-02-19T06:27:58.731Z,15.40
2023-02-19T06:31:01.631Z,14.13
2023-02-19T06:34:05.833Z,14.50
2023-02-19T06:37:08.770Z,13.32
2023-02-19T06:40:13.236Z,14.48
2023-02-19T06:43:16.110Z,14.75
2023-02-19T06:46:19.184Z,13.18
2023-02-19T06:49:22.733Z,14.80
2023-02-19T06:52:25.815Z,13.05
2023-02-19T06:55:30.052Z,13.70
2023-02-19T06:58:33.946Z,14.05
2023-02-19T07:01:38.334Z,13.93
2023-02-19T07:04:41.655Z,12.13
2023-02-19T07:07:46.632Z,12.15
2023-02-19T07:10:56.964Z,13.65
2023-02-19T07:14:01.503Z,12.60
2023-02-19T07:17:04.467Z,11.27
2023-02-19T07:20:07.795Z,10.73
2023-02-19T07:23:10.705Z,10.63
2023-02-19T07:26:16.933Z,9.52
2023-02-19T07:29:20.011Z,10.38
2023-02-19T07:32:22.846Z,10.57
2023-02-19T07:35:25.784Z,10.18
2023-02-19T07:38:29.212Z,11.32
2023-02-19T07:41:33.980Z,9.90
2023-02-19T07:44:36.902Z,9.75
2023-02-19T07:47:40.311Z,9.68
2023-02-19T07:50:43.320Z,9.23
2023-02-19T07:53:46.637Z,9.35
2023-02-19T07:56:50.952Z,9.77
2023-02-19T07:59:53.824Z,9.18
2023-02-19T08:03:03.134Z,10.68
2023-02-19T08:06:07.148Z,9.77
2023-02-19T08:09:10.654Z,10.80
2023-02-19T08:12:32.556Z,8.60
2023-02-19T08:15:35.444Z,9.50
2023-02-19T08:18:38.420Z,10.93
2023-02-19T08:21:41.252Z,9.65
2023-02-19T08:24:45.062Z,8.27
2023-02-19T08:27:49.254Z,9.48
2023-02-19T08:30:52.377Z,8.93
2023-02-19T08:33:55.878Z,9.45
2023-02-19T08:36:58.741Z,8.93
2023-02-19T08:40:01.681Z,8.75
2023-02-19T08:43:08.100Z,7.93
2023-02-19T08:46:12.229Z,9.57
2023-02-19T08:49:16.419Z,9.35
2023-02-19T08:52:19.447Z,8.20
2023-02-19T08:55:22.536Z,8.48
2023-02-19T08:58:27.253Z,8.30
2023-02-19T09:01:30.235Z,9.10
2023-02-19T09:04:33.264Z,8.93
2023-02-19T09:07:36.213Z,8.02
2023-02-19T09:10:39.097Z,8.57
2023-02-19T09:13:44.209Z,8.75
2023-02-19T09:16:46.990Z,9.02
2023-02-19T09:19:50.902Z,8.38
2023-02-19T09:22:58.201Z,7.47
2023-02-19T09:26:03.279Z,8.77
2023-02-19T09:29:07.539Z,10.50
2023-02-19T09:32:10.828Z,10.32
2023-02-19T09:35:13.736Z,9.00
2023-02-19T09:38:16.690Z,10.25
2023-02-19T09:41:25.975Z,9.30
2023-02-19T09:44:32.200Z,9.52
2023-02-19T09:47:36.026Z,8.35
2023-02-19T09:50:45.879Z,8.27
2023-02-19T09:53:51.890Z,16.60
2023-02-19T09:56:57.694Z,8.02
2023-02-19T10:00:08.577Z,8.75
2023-02-19T10:03:23.368Z,13.15
2023-02-19T10:06:29.941Z,10.48
2023-02-19T10:09:32.904Z,15.52
2023-02-19T10:12:35.776Z,17.35
2023-02-19T10:15:45.941Z,22.30
2023-02-19T10:18:49.583Z,32.38
2023-02-19T10:21:52.543Z,42.25
2023-02-19T10:24:57.321Z,40.90
2023-02-19T10:28:00.624Z,52.40
2023-02-19T10:31:12.693Z,54.92
2023-02-19T10:34:20.632Z,60.28
2023-02-19T10:37:23.654Z,61.33
2023-02-19T10:40:29.350Z,59.85
2023-02-19T10:43:36.545Z,88.45
2023-02-19T10:46:45.182Z,80.47
2023-02-19T10:49:49.796Z,91.15
2023-02-19T10:52:54.630Z,92.28
2023-02-19T10:56:08.797Z,106.15
2023-02-19T10:59:25.758Z,116.93
2023-02-19T11:02:31.523Z,113.50
2023-02-19T11:05:35.012Z,124.55
2023-02-19T11:08:48.506Z,118.95
2023-02-19T11:11:53.316Z,131.75
2023-02-19T11:14:56.694Z,126.57
2023-02-19T11:18:23.474Z,145.07
2023-02-19T11:21:32.851Z,138.57
2023-02-19T11:24:38.179Z,147.88
2023-02-19T11:27:55.355Z,157.88
2023-02-19T11:31:15.441Z,158.20
2023-02-19T11:37:34.115Z,154.07
2023-02-19T11:40:41.977Z,158.35
2023-02-19T11:44:01.323Z,174.48
2023-02-19T11:47:33.005Z,175.80
2023-02-19T11:50:49.601Z,185.98
2023-02-19T11:54:04.413Z,187.15
2023-02-19T11:57:16.334Z,205.55
2023-02-19T12:00:25.997Z,209.48
2023-02-19T12:03:49.968Z,221.20
2023-02-19T12:07:05.349Z,218.52
2023-02-19T12:10:18.797Z,218.55
2023-02-19T12:13:34.160Z,230.77
2023-02-19T12:16:43.793Z,235.48
2023-02-19T12:20:04.169Z,240.38
2023-02-19T12:23:32.072Z,231.85
2023-02-19T12:26:42.580Z,234.18
2023-02-19T12:30:00.459Z,237.50
2023-02-19T12:33:18.567Z,242.43
2023-02-19T12:36:28.907Z,250.50
2023-02-19T12:39:43.088Z,257.63
2023-02-19T12:42:58.561Z,254.88
2023-02-19T12:46:05.393Z,266.52
2023-02-19T12:49:13.490Z,269.73
2023-02-19T12:52:21.103Z,273.48
2023-02-19T12:55:29.157Z,283.63
2023-02-19T12:58:38.919Z,293.92
2023-02-19T13:01:49.616Z,275.45
2023-02-19T13:05:01.220Z,288.73
2023-02-19T13:08:09.039Z,274.75
2023-02-19T13:11:19.190Z,292.55
2023-02-19T13:14:28.397Z,296.77
2023-02-19T13:17:39.602Z,294.45
2023-02-19T13:20:44.528Z,293.13
2023-02-19T13:23:58.610Z,318.67
2023-02-19T13:27:13.328Z,296.65
2023-02-19T13:30:34.989Z,300.00
2023-02-19T13:33:48.386Z,305.17
2023-02-19T13:36:51.364Z,318.05
2023-02-19T13:39:55.891Z,309.98
2023-02-19T13:43:02.386Z,323.10
2023-02-19T13:46:08.821Z,319.77
2023-02-19T13:49:42.267Z,327.10
2023-02-19T13:52:45.195Z,321.60
2023-02-19T13:55:53.143Z,329.17
2023-02-19T13:59:01.464Z,337.48
2023-02-19T14:02:29.108Z,336.80
2023-02-19T14:06:01.861Z,331.67
2023-02-19T14:09:04.788Z,323.95
2023-02-19T14:12:20.636Z,344.65
2023-02-19T14:15:44.890Z,335.42
2023-02-19T14:18:47.942Z,343.10
2023-02-19T14:21:50.851Z,345.65
2023-02-19T14:24:55.148Z,328.58
2023-02-19T14:28:03.227Z,304.65
2023-02-19T14:31:18.572Z,302.42
2023-02-19T14:34:26.298Z,311.40
2023-02-19T14:37:29.187Z,319.40
2023-02-19T14:40:37.014Z,328.98
2023-02-19T14:43:40.760Z,288.25
2023-02-19T14:46:50.971Z,281.90
2023-02-19T14:49:59.096Z,276.83
2023-02-19T14:53:05.514Z,281.55
2023-02-19T14:56:20.624Z,293.35
2023-02-19T14:59:26.641Z,311.27
2023-02-19T15:02:33.094Z,298.98
2023-02-19T15:05:37.706Z,307.25
2023-02-19T15:08:45.548Z,305.38
2023-02-19T15:11:49.402Z,309.58
2023-02-19T15:14:56.360Z,322.45
2023-02-19T15:18:02.557Z,315.65
2023-02-19T15:21:23.667Z,333.17
2023-02-19T15:24:28.221Z,331.75
2023-02-19T15:27:31.270Z,332.13
2023-02-19T15:30:34.323Z,324.77
2023-02-19T15:33:38.527Z,355.38
2023-02-19T15:36:42.001Z,367.98
2023-02-19T15:39:48.229Z,348.08
2023-02-19T15:42:51.195Z,352.10
2023-02-19T15:45:57.599Z,343.80
2023-02-19T15:49:06.227Z,353.25
2023-02-19T15:52:13.314Z,336.25
2023-02-19T15:55:28.154Z,339.40
2023-02-19T15:58:36.265Z,347.23
2023-02-19T16:01:40.857Z,339.23
2023-02-19T16:04:46.499Z,340.90
2023-02-19T16:08:07.444Z,335.73
2023-02-19T16:11:29.778Z,357.15
2023-02-19T16:14:34.343Z,342.65
2023-02-19T16:17:37.350Z,332.35
2023-02-19T16:20:41.644Z,348.15
2023-02-19T16:23:46.474Z,350.75
2023-02-19T16:26:49.419Z,336.77
2023-02-19T16:29:53.028Z,347.33
2023-02-19T16:33:36.191Z,359.80
2023-02-19T16:36:42.486Z,350.00
2023-02-19T16:39:45.353Z,351.45
2023-02-19T16:43:24.995Z,363.00
2023-02-19T16:46:28.040Z,350.83
2023-02-19T16:49:30.873Z,370.65
2023-02-19T16:52:38.967Z,362.13
2023-02-19T16:55:41.849Z,362.35
2023-02-19T16:58:44.718Z,377.50
2023-02-19T17:01:47.711Z,417.25
2023-02-19T17:04:51.897Z,417.48
2023-02-19T17:07:56.123Z,405.70
2023-02-19T17:10:59.370Z,408.98
2023-02-19T17:14:02.229Z,419.30
2023-02-19T17:17:06.256Z,419.58
2023-02-19T17:20:21.438Z,409.83
2023-02-19T17:23:25.656Z,427.25
2023-02-19T17:26:30.964Z,383.35
2023-02-19T17:29:34.080Z,390.08
2023-02-19T17:32:37.028Z,387.77
2023-02-19T17:35:40.125Z,395.08
2023-02-19T17:38:44.340Z,400.55
2023-02-19T17:41:47.459Z,401.05
2023-02-19T17:44:51.893Z,410.55
2023-02-19T17:47:54.712Z,391.77
2023-02-19T17:50:57.850Z,401.08
2023-02-19T17:54:02.531Z,410.00
2023-02-19T17:57:05.838Z,405.30
2023-02-19T18:00:09.851Z,416.55
2023-02-19T18:03:15.827Z,432.30
2023-02-19T18:06:18.889Z,422.25
2023-02-19T18:09:23.117Z,375.73
2023-02-19T18:12:26.295Z,320.63
2023-02-19T18:15:29.613Z,315.92
2023-02-19T18:18:32.440Z,327.25
2023-02-19T18:21:35.283Z,332.13
2023-02-19T18:24:40.078Z,337.45
2023-02-19T18:27:42.926Z,343.52
2023-02-19T18:30:45.963Z,340.60
2023-02-19T18:33:48.929Z,335.50
2023-02-19T18:36:51.848Z,344.83
2023-02-19T18:39:56.064Z,355.27
2023-02-19T18:42:58.946Z,354.80
2023-02-19T18:46:02.066Z,351.77
2023-02-19T18:49:05.068Z,354.35
2023-02-19T18:52:08.378Z,352.98
2023-02-19T18:55:13.060Z,341.73
2023-02-19T18:58:15.941Z,348.80
2023-02-19T19:01:18.838Z,349.83
2023-02-19T19:04:21.829Z,353.00
2023-02-19T19:07:24.706Z,366.77
2023-02-19T19:10:29.841Z,368.30
2023-02-19T19:13:32.722Z,371.00
2023-02-19T19:16:35.887Z,374.10
2023-02-19T19:19:38.830Z,370.60
2023-02-19T19:22:41.655Z,371.67
2023-02-19T19:25:45.890Z,384.08
2023-02-19T19:28:48.724Z,394.23
2023-02-19T19:31:51.685Z,386.52
2023-02-19T19:34:55.131Z,381.58
2023-02-19T19:37:58.014Z,387.35
2023-02-19T19:41:02.263Z,375.23
2023-02-19T19:44:05.845Z,394.33
2023-02-19T19:47:08.652Z,387.80
2023-02-19T19:50:13.171Z,389.50
2023-02-19T19:53:16.239Z,397.42
2023-02-19T19:56:20.468Z,404.42
2023-02-19T19:59:24.149Z,405.42
2023-02-19T20:02:27.141Z,396.77
2023-02-19T20:05:30.062Z,413.65
2023-02-19T20:08:33.000Z,416.98
2023-02-19T20:11:43.794Z,391.67
2023-02-19T20:14:47.695Z,384.13
2023-02-19T20:17:51.291Z,408.35
2023-02-19T20:20:54.187Z,406.90
2023-02-19T20:23:57.058Z,397.88
2023-02-19T20:27:02.685Z,388.20
2023-02-19T20:30:08.756Z,404.42
2023-02-19T20:33:12.859Z,418.23
2023-02-19T20:36:15.963Z,409.20
2023-02-19T20:39:20.204Z,416.00
2023-02-19T20:42:24.532Z,397.63
2023-02-19T20:45:27.985Z,399.83
2023-02-19T20:48:30.964Z,383.23
2023-02-19T20:51:33.948Z,386.17
2023-02-19T20:54:38.326Z,377.52
2023-02-19T20:57:43.572Z,384.52
2023-02-19T21:00:46.738Z,397.15
2023-02-19T21:03:49.557Z,399.58
2023-02-19T21:06:52.644Z,398.38
2023-02-19T21:09:55.757Z,405.65
2023-02-19T21:13:00.147Z,400.50
2023-02-19T21:16:03.288Z,399.92
2023-02-19T21:19:06.252Z,401.30
2023-02-19T21:22:09.213Z,407.05
2023-02-19T21:25:12.679Z,416.92
2023-02-19T21:28:17.019Z,412.50
2023-02-19T21:31:24.462Z,410.13
2023-02-19T21:34:30.078Z,416.45
2023-02-19T21:37:33.070Z,414.35
2023-02-19T21:40:37.520Z,407.20
2023-02-19T21:43:41.764Z,400.33
2023-02-19T21:46:44.657Z,414.40
2023-02-19T21:49:47.510Z,432.20
2023-02-19T21:52:50.481Z,420.05
2023-02-19T21:56:10.403Z,418.60
2023-02-19T21:59:15.688Z,416.48
2023-02-19T22:02:19.919Z,421.88
2023-02-19T22:05:22.815Z,424.25
2023-02-19T22:08:25.726Z,416.90
2023-02-19T22:11:28.633Z,433.23
2023-02-19T22:14:32.866Z,420.85
2023-02-19T22:17:35.681Z,427.05
2023-02-19T22:20:39.516Z,413.15
2023-02-19T22:23:45.406Z,429.02
2023-02-19T22:26:50.600Z,411.25
2023-02-19T22:29:54.976Z,422.50
2023-02-19T22:32:57.879Z,417.95
2023-02-19T22:36:00.784Z,433.85
2023-02-19T22:39:04.795Z,434.55
2023-02-19T22:42:07.746Z,432.75
2023-02-19T22:45:13.134Z,437.38
2023-02-19T22:48:25.177Z,428.50
2023-02-19T22:51:35.547Z,435.02
2023-02-19T22:54:39.280Z,437.83
2023-02-19T22:57:42.162Z,437.42
2023-02-19T23:00:46.634Z,435.52
2023-02-19T23:03:51.485Z,436.50
2023-02-19T23:06:54.397Z,439.75
2023-02-19T23:09:57.248Z,446.40
2023-02-19T23:13:00.437Z,429.90
2023-02-19T23:16:06.008Z,443.20
2023-02-19T23:19:11.466Z,431.13
2023-02-19T23:22:14.343Z,448.90
2023-02-19T23:25:17.501Z,431.60
2023-02-19T23:28:20.440Z,444.85
2023-02-19T23:31:26.068Z,440.48
2023-02-19T23:34:29.076Z,443.23
2023-02-19T23:37:32.124Z,448.15
2023-02-19T23:40:35.114Z,457.45
2023-02-19T23:43:38.019Z,456.00
2023-02-19T23:46:43.179Z,453.73
2023-02-19T23:49:46.247Z,441.77
2023-02-19T23:52:49.079Z,324.85
2023-02-19T23:55:52.576Z,245.60
2023-02-19T23:58:55.734Z,209.35
